This is the latest recevied weather packets stored in our database for station/object KB1QVF. If no packets are shown the sender has not sent any weather packets the latest 10 day(s).
| Time | Temp. | Humidity | Pressure | Rain* | Wind** | Luminosity | Snow |
|---|---|---|---|---|---|---|---|
| 1777753620 | 11.11° C | 74% | 1011.9 hPa | 0 mm | - | 71 W/m² | - |
| 1777753319 | 11.11° C | 74% | 1012 hPa | 0 mm | - | 130 W/m² | - |
| 1777753016 | 11.67° C | 73% | 1011.8 hPa | 0 mm | - | 178 W/m² | - |
| 1777752712 | 11.11° C | 73% | 1011.9 hPa | 0 mm | - | 382 W/m² | - |
| 1777752408 | 11.11° C | 73% | 1012 hPa | 0 mm | - | 198 W/m² | - |
| 1777752104 | 11.67° C | 71% | 1011.9 hPa | 0 mm | - | 137 W/m² | - |
| 1777751803 | 12.22° C | 70% | 1012 hPa | 0 mm | - | 195 W/m² | - |
| 1777751499 | 12.22° C | 70% | 1011.9 hPa | 0 mm | - | 309 W/m² | - |
| 1777751196 | 12.22° C | 68% | 1011.9 hPa | 0 mm | - | 275 W/m² | - |
| 1777750893 | 12.22° C | 69% | 1011.7 hPa | 0 mm | - | 317 W/m² | - |
| 1777750589 | 11.67° C | 70% | 1011.9 hPa | 0 mm | - | 308 W/m² | - |
| 1777750286 | 11.11° C | 72% | 1012.2 hPa | 0 mm | - | 440 W/m² | - |
| 1777749981 | 11.11° C | 71% | 1012.5 hPa | 0 mm | - | 341 W/m² | - |
| 1777749679 | 11.11° C | 69% | 1012.8 hPa | 0 mm | - | 260 W/m² | - |
| 1777749376 | 11.67° C | 70% | 1012.6 hPa | 0 mm | - | 259 W/m² | - |
| 1777749073 | 11.67° C | 67% | 1012.8 hPa | 0 mm | - | 287 W/m² | - |
| 1777748771 | 12.22° C | 65% | 1012.5 hPa | 0 mm | - | 526 W/m² | - |
| 1777748468 | 11.11° C | 68% | 1012.6 hPa | 0 mm | - | 682 W/m² | - |
| 1777748162 | 11.67° C | 68% | 1012.6 hPa | 0 mm | - | 262 W/m² | - |
| 1777747860 | 11.67° C | 68% | 1013 hPa | 0 mm | - | 226 W/m² | - |
| 1777747556 | 11.67° C | 71% | 1012.6 hPa | 0 mm | - | 263 W/m² | - |
| 1777747251 | 12.22° C | 70% | 1012.8 hPa | 0 mm | - | 584 W/m² | - |
| 1777746948 | 11.67° C | 72% | 1012.6 hPa | 0 mm | - | 439 W/m² | - |
| 1777746644 | 11.11° C | 71% | 1013.1 hPa | 0 mm | - | 826 W/m² | - |
| 1777746339 | 11.11° C | 71% | 1013 hPa | 0 mm | - | 442 W/m² | - |
* Rain latest hour (hover to see other rain measurements)
** Current wind speed in m/s (hover to see current wind gust speed)